sensor_id;sensor_type;location;lat;lon;timestamp;P1;durP1;ratioP1;P2;durP2;ratioP2
46447;SDS011;32145;50.390;30.778;2023-06-24T00:02:14;10.60;;;9.25;;
46447;SDS011;32145;50.390;30.778;2023-06-24T00:05:10;12.63;;;9.70;;
46447;SDS011;32145;50.390;30.778;2023-06-24T00:08:07;11.98;;;10.55;;
46447;SDS011;32145;50.390;30.778;2023-06-24T00:11:05;12.15;;;9.88;;
46447;SDS011;32145;50.390;30.778;2023-06-24T00:14:01;12.38;;;9.85;;
46447;SDS011;32145;50.390;30.778;2023-06-24T00:16:57;15.02;;;12.10;;
46447;SDS011;32145;50.390;30.778;2023-06-24T00:19:54;12.38;;;10.07;;
46447;SDS011;32145;50.390;30.778;2023-06-24T00:22:50;10.35;;;9.27;;
46447;SDS011;32145;50.390;30.778;2023-06-24T00:25:44;14.95;;;10.38;;
46447;SDS011;32145;50.390;30.778;2023-06-24T00:28:40;12.35;;;10.27;;
46447;SDS011;32145;50.390;30.778;2023-06-24T00:31:36;16.55;;;13.00;;
46447;SDS011;32145;50.390;30.778;2023-06-24T00:34:32;12.98;;;10.82;;
46447;SDS011;32145;50.390;30.778;2023-06-24T00:37:29;14.05;;;10.00;;
46447;SDS011;32145;50.390;30.778;2023-06-24T00:40:25;12.27;;;9.70;;
46447;SDS011;32145;50.390;30.778;2023-06-24T00:43:21;12.15;;;10.10;;
46447;SDS011;32145;50.390;30.778;2023-06-24T00:46:19;12.05;;;10.30;;
46447;SDS011;32145;50.390;30.778;2023-06-24T00:49:15;14.02;;;10.15;;
46447;SDS011;32145;50.390;30.778;2023-06-24T00:52:12;13.43;;;9.80;;
46447;SDS011;32145;50.390;30.778;2023-06-24T00:55:08;12.90;;;9.60;;
46447;SDS011;32145;50.390;30.778;2023-06-24T00:58:05;18.58;;;9.63;;
46447;SDS011;32145;50.390;30.778;2023-06-24T01:01:01;11.50;;;9.68;;
46447;SDS011;32145;50.390;30.778;2023-06-24T01:03:59;11.52;;;10.18;;
46447;SDS011;32145;50.390;30.778;2023-06-24T01:06:57;12.48;;;9.98;;
46447;SDS011;32145;50.390;30.778;2023-06-24T01:09:53;10.63;;;9.52;;
46447;SDS011;32145;50.390;30.778;2023-06-24T01:12:49;12.18;;;10.23;;
46447;SDS011;32145;50.390;30.778;2023-06-24T01:15:46;13.27;;;10.48;;
46447;SDS011;32145;50.390;30.778;2023-06-24T01:18:43;12.18;;;10.88;;
46447;SDS011;32145;50.390;30.778;2023-06-24T01:21:47;12.57;;;10.68;;
46447;SDS011;32145;50.390;30.778;2023-06-24T01:25:00;14.27;;;11.07;;
46447;SDS011;32145;50.390;30.778;2023-06-24T01:28:07;12.48;;;11.18;;
46447;SDS011;32145;50.390;30.778;2023-06-24T01:31:26;12.43;;;11.13;;
46447;SDS011;32145;50.390;30.778;2023-06-24T01:34:29;13.32;;;11.25;;
46447;SDS011;32145;50.390;30.778;2023-06-24T01:37:32;14.00;;;10.55;;
46447;SDS011;32145;50.390;30.778;2023-06-24T01:40:32;13.43;;;10.60;;
46447;SDS011;32145;50.390;30.778;2023-06-24T01:43:33;13.95;;;10.50;;
46447;SDS011;32145;50.390;30.778;2023-06-24T01:46:33;14.38;;;10.52;;
46447;SDS011;32145;50.390;30.778;2023-06-24T01:49:28;14.55;;;10.52;;
46447;SDS011;32145;50.390;30.778;2023-06-24T01:52:24;14.95;;;10.50;;
46447;SDS011;32145;50.390;30.778;2023-06-24T01:55:23;13.90;;;10.82;;
46447;SDS011;32145;50.390;30.778;2023-06-24T01:58:20;12.20;;;10.65;;
46447;SDS011;32145;50.390;30.778;2023-06-24T02:01:18;11.63;;;10.43;;
46447;SDS011;32145;50.390;30.778;2023-06-24T02:04:16;12.30;;;10.95;;
46447;SDS011;32145;50.390;30.778;2023-06-24T02:07:13;12.93;;;10.80;;
46447;SDS011;32145;50.390;30.778;2023-06-24T02:10:12;16.53;;;11.83;;
46447;SDS011;32145;50.390;30.778;2023-06-24T02:13:08;13.27;;;11.77;;
46447;SDS011;32145;50.390;30.778;2023-06-24T02:16:04;14.98;;;11.20;;
46447;SDS011;32145;50.390;30.778;2023-06-24T02:19:02;14.30;;;11.40;;
46447;SDS011;32145;50.390;30.778;2023-06-24T02:21:59;14.82;;;11.80;;
46447;SDS011;32145;50.390;30.778;2023-06-24T02:24:55;15.52;;;11.93;;
46447;SDS011;32145;50.390;30.778;2023-06-24T02:27:50;13.68;;;11.23;;
46447;SDS011;32145;50.390;30.778;2023-06-24T02:30:47;13.48;;;11.30;;
46447;SDS011;32145;50.390;30.778;2023-06-24T02:33:44;16.20;;;12.10;;
46447;SDS011;32145;50.390;30.778;2023-06-24T02:36:41;14.40;;;11.52;;
46447;SDS011;32145;50.390;30.778;2023-06-24T02:39:39;15.15;;;12.07;;
46447;SDS011;32145;50.390;30.778;2023-06-24T02:42:35;15.35;;;12.13;;
46447;SDS011;32145;50.390;30.778;2023-06-24T02:45:31;13.90;;;12.20;;
46447;SDS011;32145;50.390;30.778;2023-06-24T02:48:26;16.60;;;12.38;;
46447;SDS011;32145;50.390;30.778;2023-06-24T02:51:23;15.68;;;12.65;;
46447;SDS011;32145;50.390;30.778;2023-06-24T02:54:18;15.70;;;12.60;;
46447;SDS011;32145;50.390;30.778;2023-06-24T02:57:14;17.42;;;12.43;;
46447;SDS011;32145;50.390;30.778;2023-06-24T03:00:10;15.10;;;11.80;;
46447;SDS011;32145;50.390;30.778;2023-06-24T03:03:07;14.60;;;12.05;;
46447;SDS011;32145;50.390;30.778;2023-06-24T03:06:03;15.35;;;12.85;;
46447;SDS011;32145;50.390;30.778;2023-06-24T03:08:58;15.55;;;12.50;;
46447;SDS011;32145;50.390;30.778;2023-06-24T03:11:52;14.57;;;11.85;;
46447;SDS011;32145;50.390;30.778;2023-06-24T03:14:48;14.55;;;11.95;;
46447;SDS011;32145;50.390;30.778;2023-06-24T03:17:42;13.65;;;12.07;;
46447;SDS011;32145;50.390;30.778;2023-06-24T03:20:36;15.27;;;12.18;;
46447;SDS011;32145;50.390;30.778;2023-06-24T03:23:30;15.13;;;12.48;;
46447;SDS011;32145;50.390;30.778;2023-06-24T03:26:25;14.77;;;12.02;;
46447;SDS011;32145;50.390;30.778;2023-06-24T03:29:25;16.15;;;12.00;;
46447;SDS011;32145;50.390;30.778;2023-06-24T03:32:23;15.38;;;11.93;;
46447;SDS011;32145;50.390;30.778;2023-06-24T03:35:19;15.48;;;13.02;;
46447;SDS011;32145;50.390;30.778;2023-06-24T03:38:15;15.65;;;12.25;;
46447;SDS011;32145;50.390;30.778;2023-06-24T03:41:12;15.55;;;12.45;;
46447;SDS011;32145;50.390;30.778;2023-06-24T03:44:09;16.92;;;12.00;;
46447;SDS011;32145;50.390;30.778;2023-06-24T03:47:05;15.55;;;12.10;;
46447;SDS011;32145;50.390;30.778;2023-06-24T03:50:03;19.15;;;12.43;;
46447;SDS011;32145;50.390;30.778;2023-06-24T03:53:00;12.93;;;11.32;;
46447;SDS011;32145;50.390;30.778;2023-06-24T03:55:56;14.55;;;12.27;;
46447;SDS011;32145;50.390;30.778;2023-06-24T03:58:52;15.98;;;12.43;;
46447;SDS011;32145;50.390;30.778;2023-06-24T04:01:48;16.17;;;12.85;;
46447;SDS011;32145;50.390;30.778;2023-06-24T04:04:45;15.93;;;12.98;;
46447;SDS011;32145;50.390;30.778;2023-06-24T04:07:42;18.15;;;13.60;;
46447;SDS011;32145;50.390;30.778;2023-06-24T04:10:39;16.73;;;13.93;;
46447;SDS011;32145;50.390;30.778;2023-06-24T04:13:35;15.18;;;13.15;;
46447;SDS011;32145;50.390;30.778;2023-06-24T04:16:31;17.20;;;13.55;;
46447;SDS011;32145;50.390;30.778;2023-06-24T04:19:28;15.18;;;12.73;;
46447;SDS011;32145;50.390;30.778;2023-06-24T04:22:24;15.38;;;13.48;;
46447;SDS011;32145;50.390;30.778;2023-06-24T04:25:22;18.63;;;13.73;;
46447;SDS011;32145;50.390;30.778;2023-06-24T04:28:19;18.70;;;13.55;;
46447;SDS011;32145;50.390;30.778;2023-06-24T04:31:15;18.92;;;13.40;;
46447;SDS011;32145;50.390;30.778;2023-06-24T04:34:11;15.90;;;13.30;;
46447;SDS011;32145;50.390;30.778;2023-06-24T04:37:05;16.70;;;12.90;;
46447;SDS011;32145;50.390;30.778;2023-06-24T04:40:00;16.80;;;13.30;;
46447;SDS011;32145;50.390;30.778;2023-06-24T04:42:55;24.25;;;14.20;;
46447;SDS011;32145;50.390;30.778;2023-06-24T04:45:50;17.25;;;13.63;;
46447;SDS011;32145;50.390;30.778;2023-06-24T04:48:44;16.77;;;13.88;;
46447;SDS011;32145;50.390;30.778;2023-06-24T04:51:38;17.73;;;13.52;;
46447;SDS011;32145;50.390;30.778;2023-06-24T04:54:33;18.50;;;14.63;;
46447;SDS011;32145;50.390;30.778;2023-06-24T04:57:28;22.45;;;15.55;;
46447;SDS011;32145;50.390;30.778;2023-06-24T05:00:25;19.27;;;14.25;;
46447;SDS011;32145;50.390;30.778;2023-06-24T05:03:19;19.27;;;15.05;;
46447;SDS011;32145;50.390;30.778;2023-06-24T05:06:14;21.98;;;15.50;;
46447;SDS011;32145;50.390;30.778;2023-06-24T05:09:08;20.05;;;15.40;;
46447;SDS011;32145;50.390;30.778;2023-06-24T05:12:03;19.33;;;15.40;;
46447;SDS011;32145;50.390;30.778;2023-06-24T05:15:00;20.65;;;15.98;;
46447;SDS011;32145;50.390;30.778;2023-06-24T05:17:57;18.88;;;15.18;;
46447;SDS011;32145;50.390;30.778;2023-06-24T05:20:53;19.83;;;14.65;;
46447;SDS011;32145;50.390;30.778;2023-06-24T05:23:48;15.93;;;13.70;;
46447;SDS011;32145;50.390;30.778;2023-06-24T05:26:42;19.77;;;15.07;;
46447;SDS011;32145;50.390;30.778;2023-06-24T05:29:36;19.40;;;14.55;;
46447;SDS011;32145;50.390;30.778;2023-06-24T05:32:30;19.95;;;14.68;;
46447;SDS011;32145;50.390;30.778;2023-06-24T05:35:26;16.50;;;14.43;;
46447;SDS011;32145;50.390;30.778;2023-06-24T05:38:20;17.30;;;14.02;;
46447;SDS011;32145;50.390;30.778;2023-06-24T05:41:15;17.40;;;14.23;;
46447;SDS011;32145;50.390;30.778;2023-06-24T05:44:09;19.55;;;13.88;;
46447;SDS011;32145;50.390;30.778;2023-06-24T05:46:57;18.42;;;13.60;;
46447;SDS011;32145;50.390;30.778;2023-06-24T05:49:54;18.00;;;14.55;;
46447;SDS011;32145;50.390;30.778;2023-06-24T05:52:51;17.17;;;14.70;;
46447;SDS011;32145;50.390;30.778;2023-06-24T05:55:48;19.27;;;15.45;;
46447;SDS011;32145;50.390;30.778;2023-06-24T05:58:44;18.77;;;14.75;;
46447;SDS011;32145;50.390;30.778;2023-06-24T06:01:40;20.80;;;15.55;;
46447;SDS011;32145;50.390;30.778;2023-06-24T06:04:37;18.67;;;14.25;;
46447;SDS011;32145;50.390;30.778;2023-06-24T06:07:34;16.05;;;12.18;;
46447;SDS011;32145;50.390;30.778;2023-06-24T06:10:29;16.38;;;11.95;;
46447;SDS011;32145;50.390;30.778;2023-06-24T06:13:24;15.10;;;11.32;;
46447;SDS011;32145;50.390;30.778;2023-06-24T06:16:18;13.85;;;10.95;;
46447;SDS011;32145;50.390;30.778;2023-06-24T06:19:13;16.70;;;11.25;;
46447;SDS011;32145;50.390;30.778;2023-06-24T06:22:09;15.38;;;11.32;;
46447;SDS011;32145;50.390;30.778;2023-06-24T06:25:05;15.85;;;11.35;;
46447;SDS011;32145;50.390;30.778;2023-06-24T06:28:04;17.10;;;10.52;;
46447;SDS011;32145;50.390;30.778;2023-06-24T06:31:00;19.48;;;11.55;;
46447;SDS011;32145;50.390;30.778;2023-06-24T06:33:57;16.45;;;11.40;;
46447;SDS011;32145;50.390;30.778;2023-06-24T06:36:53;14.30;;;11.35;;
46447;SDS011;32145;50.390;30.778;2023-06-24T06:39:49;15.70;;;11.65;;
46447;SDS011;32145;50.390;30.778;2023-06-24T06:42:46;17.40;;;11.55;;
46447;SDS011;32145;50.390;30.778;2023-06-24T06:45:43;17.00;;;11.52;;
46447;SDS011;32145;50.390;30.778;2023-06-24T06:48:40;15.90;;;11.30;;
46447;SDS011;32145;50.390;30.778;2023-06-24T06:51:36;18.27;;;11.75;;
46447;SDS011;32145;50.390;30.778;2023-06-24T06:54:32;18.02;;;11.32;;
46447;SDS011;32145;50.390;30.778;2023-06-24T06:57:29;17.25;;;10.13;;
46447;SDS011;32145;50.390;30.778;2023-06-24T07:00:25;16.50;;;10.10;;
46447;SDS011;32145;50.390;30.778;2023-06-24T07:03:23;14.05;;;9.73;;
46447;SDS011;32145;50.390;30.778;2023-06-24T07:06:19;18.00;;;10.23;;
46447;SDS011;32145;50.390;30.778;2023-06-24T07:09:15;14.93;;;9.43;;
46447;SDS011;32145;50.390;30.778;2023-06-24T07:12:11;14.85;;;10.27;;
46447;SDS011;32145;50.390;30.778;2023-06-24T07:15:06;15.35;;;10.20;;
46447;SDS011;32145;50.390;30.778;2023-06-24T07:18:01;13.18;;;9.30;;
46447;SDS011;32145;50.390;30.778;2023-06-24T07:20:56;17.73;;;10.13;;
46447;SDS011;32145;50.390;30.778;2023-06-24T07:23:53;17.73;;;10.40;;
46447;SDS011;32145;50.390;30.778;2023-06-24T07:26:50;15.45;;;10.00;;
46447;SDS011;32145;50.390;30.778;2023-06-24T07:29:46;16.30;;;10.38;;
46447;SDS011;32145;50.390;30.778;2023-06-24T07:32:41;17.75;;;9.80;;
46447;SDS011;32145;50.390;30.778;2023-06-24T07:35:35;17.77;;;10.15;;
46447;SDS011;32145;50.390;30.778;2023-06-24T07:38:31;14.77;;;9.73;;
46447;SDS011;32145;50.390;30.778;2023-06-24T07:41:25;18.23;;;10.90;;
46447;SDS011;32145;50.390;30.778;2023-06-24T07:44:19;15.20;;;10.55;;
46447;SDS011;32145;50.390;30.778;2023-06-24T07:47:14;15.90;;;10.23;;
46447;SDS011;32145;50.390;30.778;2023-06-24T07:50:10;18.77;;;10.50;;
46447;SDS011;32145;50.390;30.778;2023-06-24T07:53:06;18.73;;;11.60;;
46447;SDS011;32145;50.390;30.778;2023-06-24T07:56:02;20.50;;;11.48;;
46447;SDS011;32145;50.390;30.778;2023-06-24T07:58:51;18.60;;;10.10;;
46447;SDS011;32145;50.390;30.778;2023-06-24T08:01:48;19.88;;;9.85;;
46447;SDS011;32145;50.390;30.778;2023-06-24T08:04:44;18.42;;;11.00;;
46447;SDS011;32145;50.390;30.778;2023-06-24T08:07:40;15.50;;;9.00;;
46447;SDS011;32145;50.390;30.778;2023-06-24T08:10:36;18.92;;;10.18;;
46447;SDS011;32145;50.390;30.778;2023-06-24T08:13:32;18.20;;;9.40;;
46447;SDS011;32145;50.390;30.778;2023-06-24T08:16:26;17.92;;;9.18;;
46447;SDS011;32145;50.390;30.778;2023-06-24T08:19:21;16.80;;;8.90;;
46447;SDS011;32145;50.390;30.778;2023-06-24T08:22:15;16.10;;;8.50;;
46447;SDS011;32145;50.390;30.778;2023-06-24T08:25:11;15.88;;;8.32;;
46447;SDS011;32145;50.390;30.778;2023-06-24T08:28:08;12.10;;;7.32;;
46447;SDS011;32145;50.390;30.778;2023-06-24T08:31:05;14.88;;;7.57;;
46447;SDS011;32145;50.390;30.778;2023-06-24T08:34:02;16.75;;;8.43;;
46447;SDS011;32145;50.390;30.778;2023-06-24T08:36:58;14.65;;;7.10;;
46447;SDS011;32145;50.390;30.778;2023-06-24T08:39:55;11.95;;;6.60;;
46447;SDS011;32145;50.390;30.778;2023-06-24T08:42:51;15.27;;;7.47;;
46447;SDS011;32145;50.390;30.778;2023-06-24T08:45:41;14.15;;;7.53;;
46447;SDS011;32145;50.390;30.778;2023-06-24T08:48:31;14.32;;;7.15;;
46447;SDS011;32145;50.390;30.778;2023-06-24T08:51:23;12.02;;;6.05;;
46447;SDS011;32145;50.390;30.778;2023-06-24T08:54:15;14.38;;;6.30;;
46447;SDS011;32145;50.390;30.778;2023-06-24T08:57:06;11.73;;;6.47;;
46447;SDS011;32145;50.390;30.778;2023-06-24T08:59:54;13.67;;;6.53;;
46447;SDS011;32145;50.390;30.778;2023-06-24T09:02:44;12.63;;;6.28;;
46447;SDS011;32145;50.390;30.778;2023-06-24T09:05:34;14.07;;;6.63;;
46447;SDS011;32145;50.390;30.778;2023-06-24T09:08:25;16.20;;;7.28;;
46447;SDS011;32145;50.390;30.778;2023-06-24T09:11:13;18.33;;;7.13;;
46447;SDS011;32145;50.390;30.778;2023-06-24T09:14:18;11.77;;;6.30;;
46447;SDS011;32145;50.390;30.778;2023-06-24T09:17:14;12.50;;;6.00;;
46447;SDS011;32145;50.390;30.778;2023-06-24T09:20:11;14.05;;;6.22;;
46447;SDS011;32145;50.390;30.778;2023-06-24T09:23:06;14.95;;;6.47;;
46447;SDS011;32145;50.390;30.778;2023-06-24T09:25:57;11.07;;;5.88;;
46447;SDS011;32145;50.390;30.778;2023-06-24T09:28:53;13.13;;;5.88;;
46447;SDS011;32145;50.390;30.778;2023-06-24T09:31:47;11.48;;;5.47;;
46447;SDS011;32145;50.390;30.778;2023-06-24T09:34:36;13.07;;;5.85;;
46447;SDS011;32145;50.390;30.778;2023-06-24T09:37:33;11.35;;;5.75;;
46447;SDS011;32145;50.390;30.778;2023-06-24T09:40:25;11.50;;;5.50;;
46447;SDS011;32145;50.390;30.778;2023-06-24T09:43:16;12.80;;;5.25;;
46447;SDS011;32145;50.390;30.778;2023-06-24T09:46:15;12.98;;;5.75;;
46447;SDS011;32145;50.390;30.778;2023-06-24T09:49:06;12.57;;;5.57;;
46447;SDS011;32145;50.390;30.778;2023-06-24T09:51:55;11.40;;;5.85;;
46447;SDS011;32145;50.390;30.778;2023-06-24T09:54:52;12.02;;;5.60;;
46447;SDS011;32145;50.390;30.778;2023-06-24T09:57:50;11.30;;;5.70;;
46447;SDS011;32145;50.390;30.778;2023-06-24T10:00:41;13.38;;;6.18;;
46447;SDS011;32145;50.390;30.778;2023-06-24T10:03:39;12.02;;;6.28;;
46447;SDS011;32145;50.390;30.778;2023-06-24T10:06:34;13.10;;;5.88;;
46447;SDS011;32145;50.390;30.778;2023-06-24T10:09:22;14.48;;;6.65;;
46447;SDS011;32145;50.390;30.778;2023-06-24T10:12:18;13.07;;;5.97;;
46447;SDS011;32145;50.390;30.778;2023-06-24T10:15:16;13.25;;;5.88;;
46447;SDS011;32145;50.390;30.778;2023-06-24T10:21:24;14.82;;;5.80;;
46447;SDS011;32145;50.390;30.778;2023-06-24T10:24:41;10.52;;;5.43;;
46447;SDS011;32145;50.390;30.778;2023-06-24T10:27:39;11.43;;;5.45;;
46447;SDS011;32145;50.390;30.778;2023-06-24T10:30:30;12.88;;;5.50;;
46447;SDS011;32145;50.390;30.778;2023-06-24T10:33:19;12.82;;;5.78;;
46447;SDS011;32145;50.390;30.778;2023-06-24T10:39:36;13.60;;;6.40;;
46447;SDS011;32145;50.390;30.778;2023-06-24T10:42:32;13.30;;;5.50;;
46447;SDS011;32145;50.390;30.778;2023-06-24T10:45:23;14.50;;;6.72;;
46447;SDS011;32145;50.390;30.778;2023-06-24T10:48:23;12.02;;;5.68;;
46447;SDS011;32145;50.390;30.778;2023-06-24T10:51:17;16.67;;;6.22;;
46447;SDS011;32145;50.390;30.778;2023-06-24T10:54:12;20.15;;;6.88;;
46447;SDS011;32145;50.390;30.778;2023-06-24T10:57:00;11.10;;;6.17;;
46447;SDS011;32145;50.390;30.778;2023-06-24T10:59:57;10.98;;;5.30;;
46447;SDS011;32145;50.390;30.778;2023-06-24T11:02:51;12.95;;;5.70;;
46447;SDS011;32145;50.390;30.778;2023-06-24T11:05:48;9.32;;;5.22;;
46447;SDS011;32145;50.390;30.778;2023-06-24T11:08:42;15.35;;;5.93;;
46447;SDS011;32145;50.390;30.778;2023-06-24T11:11:39;11.75;;;6.47;;
46447;SDS011;32145;50.390;30.778;2023-06-24T11:14:34;11.68;;;6.07;;
46447;SDS011;32145;50.390;30.778;2023-06-24T11:17:28;10.52;;;5.50;;
46447;SDS011;32145;50.390;30.778;2023-06-24T11:20:23;12.20;;;5.93;;
46447;SDS011;32145;50.390;30.778;2023-06-24T11:23:13;13.45;;;6.15;;
46447;SDS011;32145;50.390;30.778;2023-06-24T11:26:11;10.73;;;5.97;;
46447;SDS011;32145;50.390;30.778;2023-06-24T11:29:09;12.90;;;5.88;;
46447;SDS011;32145;50.390;30.778;2023-06-24T11:32:06;12.17;;;5.93;;
46447;SDS011;32145;50.390;30.778;2023-06-24T11:34:55;12.65;;;6.93;;
46447;SDS011;32145;50.390;30.778;2023-06-24T11:37:52;12.52;;;6.13;;
46447;SDS011;32145;50.390;30.778;2023-06-24T11:40:51;12.68;;;6.43;;
46447;SDS011;32145;50.390;30.778;2023-06-24T11:43:45;10.48;;;6.43;;
46447;SDS011;32145;50.390;30.778;2023-06-24T11:46:33;13.10;;;6.43;;
46447;SDS011;32145;50.390;30.778;2023-06-24T11:49:24;12.73;;;6.10;;
46447;SDS011;32145;50.390;30.778;2023-06-24T11:52:27;13.80;;;5.80;;
46447;SDS011;32145;50.390;30.778;2023-06-24T11:55:27;12.73;;;6.00;;
46447;SDS011;32145;50.390;30.778;2023-06-24T11:58:25;12.48;;;5.65;;
46447;SDS011;32145;50.390;30.778;2023-06-24T12:01:15;11.63;;;5.60;;
46447;SDS011;32145;50.390;30.778;2023-06-24T12:04:10;9.57;;;5.28;;
46447;SDS011;32145;50.390;30.778;2023-06-24T12:07:00;11.15;;;6.05;;
46447;SDS011;32145;50.390;30.778;2023-06-24T12:09:54;10.05;;;5.53;;
46447;SDS011;32145;50.390;30.778;2023-06-24T12:12:44;10.68;;;5.65;;
46447;SDS011;32145;50.390;30.778;2023-06-24T12:15:40;12.55;;;5.93;;
46447;SDS011;32145;50.390;30.778;2023-06-24T12:18:30;13.88;;;6.13;;
46447;SDS011;32145;50.390;30.778;2023-06-24T12:21:20;10.05;;;5.32;;
46447;SDS011;32145;50.390;30.778;2023-06-24T12:24:08;11.40;;;6.13;;
46447;SDS011;32145;50.390;30.778;2023-06-24T12:27:05;9.25;;;5.70;;
46447;SDS011;32145;50.390;30.778;2023-06-24T12:30:01;10.10;;;5.72;;
46447;SDS011;32145;50.390;30.778;2023-06-24T12:33:00;11.93;;;5.82;;
46447;SDS011;32145;50.390;30.778;2023-06-24T12:35:50;11.95;;;5.93;;
46447;SDS011;32145;50.390;30.778;2023-06-24T12:38:39;12.07;;;5.57;;
46447;SDS011;32145;50.390;30.778;2023-06-24T12:41:29;9.95;;;5.60;;
46447;SDS011;32145;50.390;30.778;2023-06-24T12:44:25;11.60;;;5.40;;
46447;SDS011;32145;50.390;30.778;2023-06-24T12:47:13;10.30;;;5.53;;
46447;SDS011;32145;50.390;30.778;2023-06-24T12:50:05;15.55;;;5.43;;
46447;SDS011;32145;50.390;30.778;2023-06-24T12:53:02;11.20;;;5.53;;
46447;SDS011;32145;50.390;30.778;2023-06-24T12:55:58;13.65;;;5.82;;
46447;SDS011;32145;50.390;30.778;2023-06-24T12:58:57;10.20;;;5.55;;
46447;SDS011;32145;50.390;30.778;2023-06-24T13:01:51;12.77;;;5.57;;
46447;SDS011;32145;50.390;30.778;2023-06-24T13:04:46;8.98;;;5.47;;
46447;SDS011;32145;50.390;30.778;2023-06-24T13:07:36;11.30;;;5.32;;
46447;SDS011;32145;50.390;30.778;2023-06-24T13:10:34;9.50;;;5.43;;
46447;SDS011;32145;50.390;30.778;2023-06-24T13:13:28;11.98;;;6.07;;
46447;SDS011;32145;50.390;30.778;2023-06-24T13:16:24;11.70;;;5.35;;
46447;SDS011;32145;50.390;30.778;2023-06-24T13:19:21;12.20;;;6.00;;
46447;SDS011;32145;50.390;30.778;2023-06-24T13:22:15;14.93;;;10.77;;
46447;SDS011;32145;50.390;30.778;2023-06-24T13:25:10;12.75;;;8.50;;
46447;SDS011;32145;50.390;30.778;2023-06-24T13:28:07;8.70;;;5.20;;
46447;SDS011;32145;50.390;30.778;2023-06-24T13:31:03;11.10;;;5.90;;
46447;SDS011;32145;50.390;30.778;2023-06-24T13:33:59;14.25;;;5.97;;
46447;SDS011;32145;50.390;30.778;2023-06-24T13:36:56;14.00;;;6.07;;
46447;SDS011;32145;50.390;30.778;2023-06-24T13:39:53;11.88;;;6.68;;
46447;SDS011;32145;50.390;30.778;2023-06-24T13:42:50;10.75;;;6.50;;
46447;SDS011;32145;50.390;30.778;2023-06-24T13:45:46;12.60;;;6.22;;
46447;SDS011;32145;50.390;30.778;2023-06-24T13:48:43;9.48;;;5.97;;
46447;SDS011;32145;50.390;30.778;2023-06-24T13:51:39;11.18;;;6.65;;
46447;SDS011;32145;50.390;30.778;2023-06-24T13:54:35;9.18;;;4.97;;
46447;SDS011;32145;50.390;30.778;2023-06-24T13:57:32;8.65;;;5.97;;
46447;SDS011;32145;50.390;30.778;2023-06-24T14:00:29;12.77;;;6.55;;
46447;SDS011;32145;50.390;30.778;2023-06-24T14:03:25;7.85;;;5.25;;
46447;SDS011;32145;50.390;30.778;2023-06-24T14:06:22;9.02;;;5.03;;
46447;SDS011;32145;50.390;30.778;2023-06-24T14:09:19;10.02;;;5.47;;
46447;SDS011;32145;50.390;30.778;2023-06-24T14:12:16;7.93;;;4.60;;
46447;SDS011;32145;50.390;30.778;2023-06-24T14:15:12;8.75;;;5.25;;
46447;SDS011;32145;50.390;30.778;2023-06-24T14:18:09;11.60;;;5.80;;
46447;SDS011;32145;50.390;30.778;2023-06-24T14:21:06;8.95;;;5.28;;
46447;SDS011;32145;50.390;30.778;2023-06-24T14:24:02;9.20;;;5.70;;
46447;SDS011;32145;50.390;30.778;2023-06-24T14:26:59;7.97;;;5.13;;
46447;SDS011;32145;50.390;30.778;2023-06-24T14:29:55;9.85;;;5.60;;
46447;SDS011;32145;50.390;30.778;2023-06-24T14:32:52;10.38;;;5.30;;
46447;SDS011;32145;50.390;30.778;2023-06-24T14:35:47;8.18;;;5.20;;
46447;SDS011;32145;50.390;30.778;2023-06-24T14:38:35;7.57;;;5.43;;
46447;SDS011;32145;50.390;30.778;2023-06-24T14:41:30;8.18;;;5.55;;
46447;SDS011;32145;50.390;30.778;2023-06-24T14:44:26;10.70;;;6.20;;
46447;SDS011;32145;50.390;30.778;2023-06-24T14:47:22;9.48;;;5.82;;
46447;SDS011;32145;50.390;30.778;2023-06-24T14:50:17;13.55;;;5.97;;
46447;SDS011;32145;50.390;30.778;2023-06-24T14:53:12;8.02;;;5.28;;
46447;SDS011;32145;50.390;30.778;2023-06-24T14:56:01;10.32;;;6.78;;
46447;SDS011;32145;50.390;30.778;2023-06-24T14:58:58;10.30;;;6.95;;
46447;SDS011;32145;50.390;30.778;2023-06-24T15:01:46;9.65;;;5.90;;
46447;SDS011;32145;50.390;30.778;2023-06-24T15:04:37;8.02;;;5.78;;
46447;SDS011;32145;50.390;30.778;2023-06-24T15:07:31;10.85;;;6.30;;
46447;SDS011;32145;50.390;30.778;2023-06-24T15:10:21;8.13;;;5.90;;
46447;SDS011;32145;50.390;30.778;2023-06-24T15:13:17;7.93;;;5.95;;
46447;SDS011;32145;50.390;30.778;2023-06-24T15:16:13;9.55;;;5.90;;
46447;SDS011;32145;50.390;30.778;2023-06-24T15:19:03;10.65;;;6.40;;
46447;SDS011;32145;50.390;30.778;2023-06-24T15:22:00;8.45;;;6.38;;
46447;SDS011;32145;50.390;30.778;2023-06-24T15:24:57;13.52;;;6.82;;
46447;SDS011;32145;50.390;30.778;2023-06-24T15:27:56;10.77;;;7.03;;
46447;SDS011;32145;50.390;30.778;2023-06-24T15:30:51;11.20;;;8.00;;
46447;SDS011;32145;50.390;30.778;2023-06-24T15:33:40;12.70;;;7.30;;
46447;SDS011;32145;50.390;30.778;2023-06-24T15:36:30;11.77;;;8.18;;
46447;SDS011;32145;50.390;30.778;2023-06-24T15:39:27;10.00;;;7.60;;
46447;SDS011;32145;50.390;30.778;2023-06-24T15:42:23;12.85;;;8.23;;
46447;SDS011;32145;50.390;30.778;2023-06-24T15:45:21;10.98;;;7.75;;
46447;SDS011;32145;50.390;30.778;2023-06-24T15:48:11;14.57;;;8.48;;
46447;SDS011;32145;50.390;30.778;2023-06-24T15:51:05;11.13;;;7.80;;
46447;SDS011;32145;50.390;30.778;2023-06-24T15:53:59;10.25;;;7.85;;
46447;SDS011;32145;50.390;30.778;2023-06-24T15:56:54;12.13;;;8.20;;
46447;SDS011;32145;50.390;30.778;2023-06-24T15:59:39;13.65;;;8.02;;
46447;SDS011;32145;50.390;30.778;2023-06-24T16:02:36;12.70;;;7.80;;
46447;SDS011;32145;50.390;30.778;2023-06-24T16:05:32;10.07;;;7.55;;
46447;SDS011;32145;50.390;30.778;2023-06-24T16:08:27;13.38;;;7.93;;
46447;SDS011;32145;50.390;30.778;2023-06-24T16:11:21;11.70;;;8.07;;
46447;SDS011;32145;50.390;30.778;2023-06-24T16:14:17;9.73;;;7.05;;
46447;SDS011;32145;50.390;30.778;2023-06-24T16:17:14;17.23;;;8.13;;
46447;SDS011;32145;50.390;30.778;2023-06-24T16:20:11;13.85;;;8.07;;
46447;SDS011;32145;50.390;30.778;2023-06-24T16:23:08;13.25;;;7.63;;
46447;SDS011;32145;50.390;30.778;2023-06-24T16:26:04;11.52;;;6.80;;
46447;SDS011;32145;50.390;30.778;2023-06-24T16:29:01;12.82;;;7.43;;
46447;SDS011;32145;50.390;30.778;2023-06-24T16:31:57;13.57;;;7.60;;
46447;SDS011;32145;50.390;30.778;2023-06-24T16:34:53;14.25;;;7.80;;
46447;SDS011;32145;50.390;30.778;2023-06-24T16:37:49;10.80;;;7.47;;
46447;SDS011;32145;50.390;30.778;2023-06-24T16:40:43;11.48;;;8.30;;
46447;SDS011;32145;50.390;30.778;2023-06-24T16:43:38;10.82;;;7.40;;
46447;SDS011;32145;50.390;30.778;2023-06-24T16:46:32;10.20;;;7.20;;
46447;SDS011;32145;50.390;30.778;2023-06-24T16:49:26;10.80;;;7.65;;
46447;SDS011;32145;50.390;30.778;2023-06-24T16:52:21;9.68;;;7.57;;
46447;SDS011;32145;50.390;30.778;2023-06-24T16:55:18;11.90;;;7.70;;
46447;SDS011;32145;50.390;30.778;2023-06-24T16:58:15;12.82;;;8.23;;
46447;SDS011;32145;50.390;30.778;2023-06-24T17:01:11;11.48;;;8.32;;
46447;SDS011;32145;50.390;30.778;2023-06-24T17:04:08;10.95;;;8.15;;
46447;SDS011;32145;50.390;30.778;2023-06-24T17:07:04;15.80;;;8.20;;